Time;durP1;ratioP1;P1;durP2;ratioP2;P2;SDS_P1;SDS_P2;PMS_P1;PMS_P2;Temp;Humidity;BMP_temperature;BMP_pressure;BME280_temperature;BME280_humidity;BME280_pressure;Samples;Min_cycle;Max_cycle;Signal;HPM_P1;HPM_P2
2022/11/16 14:32:52;;;;;;;20.35;7.90;;;;;;;22.88;46.94;98261.72;4932464;28;3874255;-49
2022/11/16 14:35:38;;;;;;;17.15;7.55;;;;;;;23.34;45.99;98264.94;5031747;28;20033;-46
2022/11/16 14:38:07;;;;;;;16.77;7.22;;;;;;;23.62;45.43;98255.47;5050017;28;20060;-47
2022/11/16 14:40:43;;;;;;;18.95;6.30;;;;;;;23.75;44.93;98245.47;5050243;28;20029;-46
2022/11/16 14:43:19;;;;;;;17.15;6.10;;;;;;;23.86;44.58;98242.56;5015415;28;20087;-46
2022/11/16 14:46:08;;;;;;;16.25;5.93;;;;;;;23.96;44.61;98250.13;5049501;28;20029;-47
2022/11/16 14:48:44;;;;;;;13.82;6.00;;;;;;;24.06;44.22;98229.75;5042972;28;20048;-46
2022/11/16 14:51:18;;;;;;;13.80;5.43;;;;;;;24.21;44.00;98249.41;5049412;28;20091;-46
2022/11/16 14:54:14;;;;;;;15.85;5.28;;;;;;;24.19;43.86;98252.94;5010861;28;20030;-46
2022/11/16 14:57:06;;;;;;;12.45;4.63;;;;;;;24.26;43.89;98244.00;5056166;28;20050;-47
2022/11/16 14:59:33;;;;;;;14.30;5.18;;;;;;;24.23;44.14;98231.00;5035932;28;20025;-46
2022/11/16 15:02:16;;;;;;;12.55;5.72;;;;;;;24.21;43.99;98220.59;5038894;28;20036;-46
2022/11/16 15:04:44;;;;;;;13.82;5.20;;;;;;;24.41;43.78;98235.66;5023403;28;20598;-46
2022/11/16 15:07:14;;;;;;;14.95;5.07;;;;;;;24.53;43.64;98242.28;5009224;28;20028;-46
2022/11/16 15:09:45;;;;;;;11.02;4.03;;;;;;;24.71;43.65;98226.88;5056744;28;20060;-48
2022/11/16 15:12:57;;;;;;;15.50;5.05;;;;;;;24.72;43.83;98212.88;5039462;28;20029;-52
2022/11/16 15:15:07;;;;;;;17.23;5.80;;;;;;;24.79;43.40;98208.28;5050841;28;20047;-45
2022/11/16 15:17:36;;;;;;;12.35;4.82;;;;;;;24.80;43.20;98204.75;5035149;28;20068;-45
2022/11/16 15:20:23;;;;;;;15.75;4.80;;;;;;;24.79;43.48;98205.66;5059779;28;20059;-46
2022/11/16 15:22:54;;;;;;;11.48;3.72;;;;;;;24.86;43.25;98215.00;5054342;28;20029;-46
2022/11/16 15:25:35;;;;;;;12.18;4.50;;;;;;;24.85;43.53;98224.66;5056301;28;20546;-46
2022/11/16 15:28:15;;;;;;;14.15;4.85;;;;;;;24.83;43.07;98226.47;5059923;28;20159;-46
2022/11/16 15:30:46;;;;;;;65.30;41.45;;;;;;;24.98;42.92;98267.06;5056274;28;20049;-48
2022/11/16 15:33:22;;;;;;;50.70;33.65;;;;;;;25.09;43.02;98250.09;5010756;28;20364;-45
2022/11/16 15:35:50;;;;;;;45.63;28.30;;;;;;;25.13;42.68;98223.69;5043828;28;20055;-46
2022/11/16 15:38:21;;;;;;;35.30;23.35;;;;;;;25.14;42.86;98270.00;5045715;28;20031;-47
2022/11/16 15:41:01;;;;;;;31.25;20.77;;;;;;;25.15;43.05;98273.50;5040943;28;20113;-45
2022/11/16 15:43:36;;;;;;;33.83;20.27;;;;;;;25.11;43.19;98277.97;5024516;28;20037;-50
2022/11/16 15:46:07;;;;;;;29.50;19.73;;;;;;;25.13;43.02;98280.56;5021550;28;20044;-45
2022/11/16 15:48:37;;;;;;;26.88;17.02;;;;;;;25.27;42.85;98278.31;5028171;28;20032;-53
2022/11/16 15:51:14;;;;;;;29.13;16.58;;;;;;;25.33;42.62;98285.94;5040061;28;20539;-49
2022/11/16 15:53:43;;;;;;;23.83;14.05;;;;;;;25.30;42.89;98279.97;5042922;28;20022;-47
2022/11/16 15:56:31;;;;;;;24.77;14.02;;;;;;;25.33;42.63;98285.09;5042729;28;20024;-50
2022/11/16 15:59:00;;;;;;;23.90;12.95;;;;;;;25.40;42.71;98285.75;5043926;28;20025;-48
2022/11/16 16:01:28;;;;;;;24.80;12.55;;;;;;;25.45;42.40;98287.31;5025858;28;20048;-46
2022/11/16 16:04:04;;;;;;;25.15;13.30;;;;;;;25.43;42.59;98297.00;5025907;28;20026;-55
2022/11/16 16:06:52;;;;;;;25.05;12.98;;;;;;;25.55;42.10;98295.72;5043646;28;20035;-51
2022/11/16 16:09:33;;;;;;;22.17;11.05;;;;;;;25.56;41.88;98297.44;5006055;28;20120;-49
2022/11/16 16:12:21;;;;;;;23.70;11.30;;;;;;;25.63;41.79;98287.56;5042010;28;20064;-47
2022/11/16 16:14:50;;;;;;;23.45;10.25;;;;;;;25.65;41.42;98296.25;5045298;28;20060;-52
2022/11/16 16:17:28;;;;;;;24.42;10.48;;;;;;;25.55;41.63;98302.75;5041924;28;20088;-53
2022/11/16 16:19:59;;;;;;;24.10;10.55;;;;;;;25.47;41.45;98285.50;5044706;28;20032;-50
2022/11/16 16:22:34;;;;;;;24.20;9.40;;;;;;;25.69;40.80;98299.63;5025245;28;20021;-53
2022/11/16 16:25:03;;;;;;;23.67;9.60;;;;;;;25.72;41.06;98300.38;5009033;28;20095;-50
2022/11/16 16:27:32;;;;;;;26.08;9.52;;;;;;;25.59;41.18;98276.34;5043355;28;20063;-51
2022/11/16 16:30:04;;;;;;;21.33;9.52;;;;;;;25.57;41.15;98299.16;5025730;28;20149;-54
2022/11/16 16:32:36;;;;;;;23.58;9.45;;;;;;;25.58;41.37;98303.50;5040663;28;20045;-46
2022/11/16 16:35:06;;;;;;;23.02;9.45;;;;;;;25.59;41.23;98309.59;5026391;28;20068;-52
2022/11/16 16:37:36;;;;;;;23.95;9.05;;;;;;;25.67;40.73;98288.31;5043141;28;20033;-49
2022/11/16 16:40:04;;;;;;;21.60;7.95;;;;;;;25.74;40.76;98293.28;5043884;28;20067;-51
2022/11/16 16:42:33;;;;;;;23.48;8.32;;;;;;;25.82;40.11;98293.00;5038723;28;20091;-46
2022/11/16 16:45:01;;;;;;;21.73;8.88;;;;;;;25.63;40.28;98290.19;5043566;28;20032;-50
2022/11/16 16:47:28;;;;;;;22.55;8.52;;;;;;;25.77;40.30;98298.41;5041798;28;20468;-48
2022/11/16 16:49:57;;;;;;;23.48;8.40;;;;;;;25.77;40.28;98302.84;5045052;28;20017;-48
2022/11/16 16:52:45;;;;;;;22.83;9.10;;;;;;;25.72;40.21;98304.75;5027195;28;20025;-49
2022/11/16 16:55:13;;;;;;;23.83;8.07;;;;;;;25.79;40.08;98311.50;5040309;28;20039;-46
2022/11/16 16:57:42;;;;;;;21.13;7.57;;;;;;;25.76;40.20;98316.88;5041409;28;20036;-48
2022/11/16 17:00:12;;;;;;;18.15;7.70;;;;;;;25.71;40.24;98321.44;5020698;28;20032;-47
2022/11/16 17:02:40;;;;;;;21.88;7.13;;;;;;;25.63;40.36;98326.94;5044095;28;20119;-53
2022/11/16 17:05:09;;;;;;;25.13;8.15;;;;;;;25.68;39.96;98332.03;5010357;28;20372;-46
2022/11/16 17:07:37;;;;;;;23.80;7.28;;;;;;;25.72;39.93;98313.50;5042087;28;20167;-47
2022/11/16 17:10:06;;;;;;;19.88;7.53;;;;;;;25.79;39.49;98311.50;5026388;28;20086;-48
2022/11/16 17:12:35;;;;;;;22.52;7.93;;;;;;;25.82;39.37;98314.00;5041266;28;20049;-48
2022/11/16 17:15:04;;;;;;;19.20;7.22;;;;;;;25.87;39.32;98313.84;5037820;28;20475;-47
2022/11/16 17:17:31;;;;;;;22.27;7.18;;;;;;;25.91;38.83;98318.94;5041813;28;20030;-46
2022/11/16 17:20:00;;;;;;;20.60;7.00;;;;;;;25.80;38.60;98318.47;5036924;28;20116;-47
2022/11/16 17:22:29;;;;;;;22.80;8.18;;;;;;;25.93;38.55;98340.75;5025468;28;20025;-47
2022/11/16 17:24:56;;;;;;;20.75;6.40;;;;;;;25.85;38.57;98319.16;5040294;28;20476;-47
2022/11/16 17:27:25;;;;;;;20.63;6.15;;;;;;;25.87;38.57;98335.72;5008060;28;20545;-46
2022/11/16 17:29:53;;;;;;;22.23;6.75;;;;;;;25.91;38.46;98328.56;5042791;28;20022;-46
2022/11/16 17:32:21;;;;;;;21.77;6.25;;;;;;;25.91;38.43;98336.44;5041601;28;20045;-46
2022/11/16 17:34:49;;;;;;;20.70;7.03;;;;;;;25.88;38.43;98324.28;5042514;28;20052;-46
2022/11/16 17:37:18;;;;;;;24.02;6.50;;;;;;;25.94;38.12;98337.22;5025280;28;20107;-46
2022/11/16 17:39:46;;;;;;;23.50;6.72;;;;;;;25.18;38.67;98231.38;5041723;28;20029;-53
2022/11/16 17:42:14;;;;;;;21.38;6.18;;;;;;;25.83;38.50;98334.09;5040992;28;20025;-50
2022/11/16 17:44:42;;;;;;;22.65;6.55;;;;;;;25.78;38.28;98318.53;5034924;28;20030;-46
2022/11/16 17:47:11;;;;;;;19.98;6.50;;;;;;;25.79;38.55;98333.38;5019824;28;20037;-48
2022/11/16 17:49:40;;;;;;;23.40;6.78;;;;;;;25.86;38.13;98320.88;5040449;28;20053;-50
2022/11/16 17:52:08;;;;;;;21.00;6.72;;;;;;;25.84;38.27;98332.34;5017937;28;20036;-54
2022/11/16 17:54:37;;;;;;;19.02;6.82;;;;;;;25.86;38.13;98349.75;5036698;28;20021;-46
2022/11/16 17:57:05;;;;;;;22.10;7.13;;;;;;;25.77;38.19;98318.59;5043556;28;20021;-50
2022/11/16 17:59:34;;;;;;;19.33;6.35;;;;;;;25.84;38.16;98341.06;5041144;28;20195;-55
2022/11/16 18:02:02;;;;;;;20.58;6.78;;;;;;;25.82;37.81;98321.03;5042438;28;20483;-45
2022/11/16 18:04:31;;;;;;;18.38;5.80;;;;;;;25.78;37.67;98322.94;5024094;28;20064;-54
2022/11/16 18:07:00;;;;;;;24.13;6.43;;;;;;;25.90;37.60;98351.38;5042349;28;20033;-51
2022/11/16 18:09:28;;;;;;;15.68;5.10;;;;;;;25.83;37.33;98323.59;5042217;28;20040;-53
2022/11/16 18:11:57;;;;;;;18.17;6.43;;;;;;;25.74;37.36;98326.56;5039022;28;20476;-48
2022/11/16 18:14:26;;;;;;;17.02;5.93;;;;;;;25.81;37.35;98325.44;5008371;28;20040;-46
2022/11/16 18:16:55;;;;;;;17.67;6.18;;;;;;;25.76;37.20;98336.09;5023655;28;20021;-49
2022/11/16 18:19:24;;;;;;;16.88;5.68;;;;;;;25.83;36.97;98330.63;5022766;28;20028;-53
2022/11/16 18:22:02;;;;;;;17.98;5.28;;;;;;;25.71;37.06;98329.31;5017817;28;20026;-49
2022/11/16 18:24:31;;;;;;;20.15;6.63;;;;;;;25.72;37.32;98326.63;5039096;28;20444;-46
2022/11/16 18:26:59;;;;;;;19.45;5.68;;;;;;;25.67;37.36;98343.44;5038409;28;20020;-48
2022/11/16 18:29:28;;;;;;;20.20;6.13;;;;;;;25.53;37.51;98344.78;5040311;28;20034;-47
2022/11/16 18:31:56;;;;;;;22.25;6.20;;;;;;;25.51;37.71;98343.16;5039736;28;20049;-46
2022/11/16 18:34:25;;;;;;;18.02;5.55;;;;;;;25.57;37.27;98329.78;5036477;28;20029;-51
2022/11/16 18:36:55;;;;;;;18.45;5.43;;;;;;;25.60;36.73;98327.06;5036446;28;20033;-46
2022/11/16 18:39:23;;;;;;;115.95;65.35;;;;;;;25.61;37.07;98345.41;5036048;28;20060;-50
2022/11/16 18:41:52;;;;;;;201.40;120.78;;;;;;;25.32;37.53;98293.88;5022530;28;20033;-46
2022/11/16 18:44:21;;;;;;;187.05;118.90;;;;;;;25.53;37.49;98321.16;5043027;28;20029;-52
2022/11/16 18:46:49;;;;;;;208.20;127.38;;;;;;;25.51;37.78;98328.25;5022940;28;20025;-47
2022/11/16 18:49:18;;;;;;;189.88;114.85;;;;;;;25.50;37.60;98336.19;5042329;28;20029;-46
2022/11/16 18:51:47;;;;;;;186.98;113.28;;;;;;;25.50;37.55;98325.69;5038446;28;20041;-46
2022/11/16 18:54:15;;;;;;;188.75;111.38;;;;;;;25.40;37.91;98322.47;5020063;28;20411;-46
2022/11/16 18:56:44;;;;;;;170.50;101.38;;;;;;;25.52;37.75;98327.31;5022011;28;20025;-47
2022/11/16 18:59:12;;;;;;;150.90;86.43;;;;;;;25.33;37.85;98301.69;5023567;28;20034;-47
2022/11/16 19:01:41;;;;;;;138.07;81.72;;;;;;;25.35;38.03;98343.63;5001486;28;20120;-49
2022/11/16 19:04:10;;;;;;;126.55;71.32;;;;;;;25.34;37.79;98324.41;5032008;28;20037;-50
2022/11/16 19:06:38;;;;;;;118.57;68.20;;;;;;;25.46;37.69;98335.44;5015038;28;20435;-46
2022/11/16 19:09:08;;;;;;;100.53;58.85;;;;;;;25.40;37.77;98330.34;5036385;28;20025;-47
2022/11/16 19:11:37;;;;;;;98.20;54.67;;;;;;;25.48;37.66;98331.00;5036192;28;20033;-45
2022/11/16 19:14:06;;;;;;;86.53;46.30;;;;;;;25.43;37.50;98318.00;5035920;28;20025;-46
2022/11/16 19:16:35;;;;;;;81.70;45.13;;;;;;;25.47;37.68;98334.53;5036118;28;20057;-50
2022/11/16 19:19:04;;;;;;;72.38;38.50;;;;;;;25.29;38.02;98326.34;5018441;28;20544;-46
2022/11/16 19:21:32;;;;;;;65.55;36.08;;;;;;;25.26;38.26;98339.56;5001993;28;20060;-46
2022/11/16 19:24:01;;;;;;;62.30;33.10;;;;;;;25.40;37.87;98361.84;5035328;28;20051;-46
2022/11/16 19:26:29;;;;;;;57.88;30.80;;;;;;;25.45;37.60;98331.94;5035503;28;20029;-46
2022/11/16 19:29:00;;;;;;;52.15;26.98;;;;;;;25.49;37.25;98330.06;5036121;28;20105;-50
2022/11/16 19:31:30;;;;;;;49.28;23.80;;;;;;;25.44;37.46;98332.84;5035723;28;20096;-46
2022/11/16 19:34:01;;;;;;;41.30;22.15;;;;;;;25.48;37.29;98329.22;5036105;28;20031;-46
2022/11/16 19:36:30;;;;;;;39.63;19.60;;;;;;;25.49;37.32;98335.31;5017809;28;20022;-46
2022/11/16 19:38:59;;;;;;;41.05;18.35;;;;;;;25.47;37.07;98327.50;5018822;28;20100;-45
2022/11/16 19:41:28;;;;;;;37.50;16.45;;;;;;;25.37;37.15;98347.06;5018036;28;20029;-52
2022/11/16 19:43:58;;;;;;;32.22;15.50;;;;;;;25.34;37.22;98369.00;5035557;28;20064;-49
2022/11/16 19:46:28;;;;;;;32.20;14.80;;;;;;;25.32;37.16;98367.34;5018249;28;20033;-47
2022/11/16 19:48:57;;;;;;;26.27;12.50;;;;;;;25.28;37.28;98371.00;5035267;28;20040;-51
2022/11/16 19:51:28;;;;;;;25.30;11.77;;;;;;;25.31;37.06;98384.00;5018693;28;20035;-46
2022/11/16 19:53:58;;;;;;;25.33;11.40;;;;;;;25.35;37.04;98388.25;5035554;28;20032;-49
2022/11/16 19:56:26;;;;;;;23.38;10.32;;;;;;;25.41;37.09;98414.28;5017562;28;20033;-46
2022/11/16 19:58:55;;;;;;;26.10;10.13;;;;;;;25.32;37.07;98376.06;5035509;28;20467;-46
2022/11/16 20:01:27;;;;;;;20.48;9.70;;;;;;;25.37;36.88;98390.81;5017564;28;20037;-49
2022/11/16 20:03:56;;;;;;;22.92;9.65;;;;;;;25.42;36.83;98404.69;5017124;28;20475;-52
2022/11/16 20:06:26;;;;;;;25.38;9.48;;;;;;;25.34;36.96;98413.63;5006798;28;20041;-54
2022/11/16 20:08:57;;;;;;;19.98;8.15;;;;;;;25.33;37.29;98434.69;5026945;28;20467;-53
2022/11/16 20:11:26;;;;;;;19.27;7.93;;;;;;;25.27;37.35;98442.75;5042479;28;20033;-49
2022/11/16 20:13:55;;;;;;;15.52;7.60;;;;;;;25.20;37.44;98434.22;5043861;28;20021;-51
2022/11/16 20:16:25;;;;;;;15.18;6.53;;;;;;;25.29;37.15;98454.03;4990492;28;20503;-49
2022/11/16 20:18:53;;;;;;;15.73;6.60;;;;;;;25.34;37.13;98463.47;5043797;28;20474;-56
2022/11/16 20:21:27;;;;;;;19.35;6.38;;;;;;;25.37;37.33;98456.41;5041612;28;20151;-51
2022/11/16 20:23:56;;;;;;;13.57;5.63;;;;;;;25.16;37.47;98474.56;5043031;28;20111;-47
2022/11/16 20:26:27;;;;;;;13.98;5.72;;;;;;;25.24;36.94;98487.44;5043867;28;20034;-53
2022/11/16 20:28:55;;;;;;;13.30;4.93;;;;;;;25.23;37.10;98485.75;5025188;28;20032;-49
2022/11/16 20:31:26;;;;;;;12.27;4.05;;;;;;;25.24;37.02;98497.94;5045761;28;20041;-52
2022/11/16 20:33:57;;;;;;;11.20;3.92;;;;;;;25.16;37.22;98504.28;5025541;28;20544;-46
2022/11/16 20:36:25;;;;;;;12.05;4.82;;;;;;;25.21;37.21;98503.31;5043320;28;20037;-49
2022/11/16 20:38:52;;;;;;;12.82;5.13;;;;;;;25.15;36.81;98513.06;5040889;28;20033;-50
2022/11/16 20:41:22;;;;;;;8.30;3.67;;;;;;;25.12;36.95;98525.44;5039059;28;20111;-46
2022/11/16 20:43:53;;;;;;;14.63;4.10;;;;;;;25.05;37.45;98539.63;5023227;28;20116;-46
2022/11/16 20:46:22;;;;;;;14.15;4.20;;;;;;;25.09;37.35;98547.34;5026233;28;20116;-47
2022/11/16 20:48:49;;;;;;;10.68;3.65;;;;;;;25.09;37.57;98533.38;5042624;28;20040;-51
2022/11/16 20:51:18;;;;;;;11.20;4.25;;;;;;;24.87;37.58;98526.16;5039737;28;20033;-46
2022/11/16 20:53:47;;;;;;;8.77;3.15;;;;;;;25.13;37.47;98551.59;5040072;28;20384;-50
2022/11/16 20:56:17;;;;;;;13.23;4.25;;;;;;;25.15;37.68;98560.28;5015331;28;20060;-51
2022/11/16 20:58:47;;;;;;;10.05;3.38;;;;;;;25.21;37.42;98561.03;5038281;28;20029;-47
2022/11/16 21:01:31;;;;;;;7.72;2.92;;;;;;;25.09;37.87;98568.34;5016766;28;20032;-47
2022/11/16 21:04:01;;;;;;;8.15;3.20;;;;;;;25.18;37.52;98557.59;4998750;28;20037;-46
2022/11/16 21:06:28;;;;;;;9.48;3.45;;;;;;;25.29;37.57;98582.63;5015780;28;20112;-46
2022/11/16 21:08:57;;;;;;;6.60;2.55;;;;;;;25.26;37.55;98580.97;5024939;28;20032;-48
2022/11/16 21:11:28;;;;;;;6.93;2.40;;;;;;;25.19;37.77;98576.78;5041959;28;20052;-46
2022/11/16 21:14:16;;;;;;;6.10;2.90;;;;;;;25.27;37.74;98587.06;5015278;28;20031;-47
2022/11/16 21:16:43;;;;;;;7.07;2.78;;;;;;;25.31;37.89;98600.06;5028902;28;20036;-46
2022/11/16 21:19:12;;;;;;;7.93;2.88;;;;;;;25.34;37.88;98613.06;5002592;28;20105;-46
2022/11/16 21:21:40;;;;;;;8.40;3.13;;;;;;;25.37;37.66;98620.00;5019973;28;20103;-48
2022/11/16 21:24:10;;;;;;;8.45;2.30;;;;;;;25.33;37.69;98631.50;5023152;28;20259;-47
2022/11/16 21:26:37;;;;;;;7.13;2.65;;;;;;;25.43;37.39;98640.00;5006391;28;20567;-49
2022/11/16 21:29:05;;;;;;;7.57;2.30;;;;;;;25.17;37.89;98623.19;5040207;28;20032;-49
2022/11/16 21:31:34;;;;;;;7.50;2.28;;;;;;;25.26;38.06;98659.69;5039813;28;20124;-46
2022/11/16 21:34:04;;;;;;;10.60;2.90;;;;;;;25.27;37.97;98669.28;5028601;28;20024;-48
2022/11/16 21:36:32;;;;;;;7.35;2.50;;;;;;;25.37;37.73;98671.63;5042072;28;20026;-45
2022/11/16 21:39:00;;;;;;;6.35;2.28;;;;;;;25.41;37.72;98678.50;5038379;28;20029;-45
2022/11/16 21:41:29;;;;;;;6.10;2.38;;;;;;;25.39;37.85;98675.94;5039121;28;20060;-46
2022/11/16 21:43:57;;;;;;;8.15;2.20;;;;;;;25.30;38.11;98671.81;5040225;28;20430;-46
2022/11/16 21:46:26;;;;;;;5.78;2.00;;;;;;;25.41;37.93;98684.59;5011625;28;20423;-50
2022/11/16 21:48:55;;;;;;;4.70;1.63;;;;;;;25.36;38.00;98686.53;5034001;28;20112;-45
2022/11/16 21:51:25;;;;;;;7.68;2.78;;;;;;;25.36;38.13;98702.28;5052405;28;20056;-49
2022/11/16 21:53:54;;;;;;;5.80;2.28;;;;;;;25.41;38.03;98695.09;5052966;28;20371;-54
2022/11/16 21:56:24;;;;;;;8.13;2.10;;;;;;;25.42;38.06;98707.34;5052785;28;20021;-51
2022/11/16 21:58:53;;;;;;;6.20;1.95;;;;;;;25.46;37.80;98709.00;5035542;28;20100;-51
2022/11/16 22:01:22;;;;;;;6.90;2.33;;;;;;;25.52;37.92;98728.94;5035608;28;20029;-50
2022/11/16 22:09:25;;;;;;;4.47;1.90;;;;;;;25.66;37.56;98718.06;5043211;28;20040;-51
2022/11/16 22:11:54;;;;;;;5.15;1.90;;;;;;;25.68;37.64;98716.25;5052742;28;20040;-46
2022/11/16 22:14:23;;;;;;;5.15;1.67;;;;;;;25.61;37.48;98712.94;5053268;28;20029;-49
2022/11/16 22:16:51;;;;;;;4.53;1.60;;;;;;;25.70;37.34;98716.19;5053094;28;20029;-46
2022/11/16 22:19:20;;;;;;;5.40;1.60;;;;;;;25.60;37.41;98734.84;5035083;28;20024;-49
2022/11/16 22:21:48;;;;;;;5.07;1.63;;;;;;;25.72;37.40;98720.50;5052757;28;20535;-50
2022/11/16 22:24:16;;;;;;;5.45;1.90;;;;;;;25.62;37.37;98717.28;5035322;28;20033;-46
2022/11/16 22:26:45;;;;;;;4.13;1.70;;;;;;;25.59;37.47;98724.38;5018896;28;20494;-46
2022/11/16 22:29:13;;;;;;;6.10;2.60;;;;;;;25.52;37.50;98726.31;5052492;28;20029;-45
2022/11/16 22:31:43;;;;;;;8.00;2.25;;;;;;;25.71;37.27;98744.19;5034583;28;20077;-46
2022/11/16 22:34:11;;;;;;;5.88;1.80;;;;;;;25.70;37.06;98734.56;5052999;28;20037;-48
2022/11/16 22:36:40;;;;;;;6.82;1.90;;;;;;;25.67;37.35;98734.66;5052668;28;20529;-52
2022/11/16 22:39:08;;;;;;;4.20;1.50;;;;;;;25.61;37.11;98723.44;5035172;28;20071;-46
2022/11/16 22:41:36;;;;;;;7.35;1.95;;;;;;;25.67;37.21;98729.41;5052754;28;20025;-51
2022/11/16 22:44:05;;;;;;;6.88;2.33;;;;;;;25.63;37.29;98753.16;5055867;28;20467;-45
2022/11/16 22:49:56;;;;;;;5.80;2.22;;;;;;;25.70;37.14;98764.34;5055091;28;20122;-45
2022/11/16 22:52:25;;;;;;;5.20;1.67;;;;;;;25.71;37.14;98788.81;5056351;28;20036;-52
2022/11/16 22:54:54;;;;;;;4.65;1.55;;;;;;;25.64;37.36;98769.75;5038732;28;20079;-46
2022/11/16 22:57:25;;;;;;;6.43;2.42;;;;;;;25.59;37.18;98766.38;5055896;28;20147;-45
2022/11/16 22:59:54;;;;;;;10.07;1.90;;;;;;;25.54;37.59;98777.03;5039016;28;20036;-52
2022/11/16 23:02:23;;;;;;;6.72;1.80;;;;;;;25.59;37.36;98783.03;5056092;28;20025;-45
2022/11/16 23:04:52;;;;;;;5.00;1.70;;;;;;;25.52;37.70;98776.22;5038780;28;20138;-45
2022/11/16 23:07:20;;;;;;;5.78;2.08;;;;;;;25.60;37.34;98783.88;5056312;28;20100;-47
2022/11/16 23:09:49;;;;;;;4.95;2.13;;;;;;;25.65;37.20;98778.50;5038796;28;20100;-45
2022/11/16 23:17:53;;;;;;;7.05;2.60;;;;;;;25.58;37.48;98793.53;5046105;28;20120;-45
2022/11/16 23:28:56;;;;;;;9.00;2.83;;;;;;;25.63;37.13;98779.41;5031389;28;20025;-44
2022/11/16 23:31:24;;;;;;;7.90;2.42;;;;;;;25.72;37.00;98807.19;5033770;28;20059;-46
2022/11/16 23:33:53;;;;;;;8.18;2.63;;;;;;;25.83;36.54;98801.59;5035658;28;20029;-45
2022/11/16 23:36:22;;;;;;;12.68;3.00;;;;;;;25.79;36.59;98808.69;5035656;28;20462;-45
2022/11/16 23:38:50;;;;;;;8.15;2.53;;;;;;;25.81;36.69;98797.28;5035801;28;20033;-44
2022/11/16 23:44:07;;;;;;;10.98;3.33;;;;;;;25.72;36.53;98814.16;5029071;28;20091;-46
2022/11/16 23:46:36;;;;;;;8.80;2.67;;;;;;;25.75;36.63;98820.19;5035575;28;20051;-48
2022/11/16 23:49:04;;;;;;;8.20;2.53;;;;;;;25.80;36.33;98809.56;5035429;28;20454;-47
2022/11/16 23:51:33;;;;;;;10.98;2.97;;;;;;;25.85;36.10;98814.69;5034002;28;20056;-46
2022/11/16 23:54:03;;;;;;;14.02;3.35;;;;;;;25.82;36.17;98822.66;5034836;28;20052;-53
2022/11/16 23:56:32;;;;;;;8.70;2.65;;;;;;;25.78;36.36;98819.25;5035147;28;20036;-45
2022/11/16 23:59:00;;;;;;;12.48;2.85;;;;;;;25.86;36.10;98832.19;5034596;28;20026;-45
